Latest Weather Observations for Hogan Island

IDT60801

Issued at 3:01 pm EST Thursday 2 July 2015 (issued every 30 minutes, with the page automatically refreshed every 10 minutes)

About weather observations | Map of weather stations | Latest weather observations for TAS | Other Formats
Station Details ID: 200838 Name: HOGAN ISLAND Lat: -39.22 Lon: 146.98 Height: 116.0 m
Data from the previous 72 hours. | See also: Recent months at Hogan Island
Date/Time
EST
Temp
°C
App
Temp
°C
Dew
Point
Rel
Hum
%
Delta-T
°C
Wind Press
QNH
hPa
Press
MSL
hPa
Rain
since 9 am
mm
Dir
 
Spd
km/h
Gust
km/h
Spd
kts
Gust
kts
02/03:00pm 10.2 -4.0 3.3 62 3.0 WSW 67 76 36 41 1019.3 1019.5 0.8
02/02:30pm 10.3 -2.3 3.8 64 2.9 SW 59 69 32 37 1019.1 - 0.8
02/02:00pm 10.1 -3.1 4.5 68 2.5 SW 63 76 34 41 1018.9 - 0.8
02/01:30pm 9.1 -3.9 3.3 67 2.5 SW 61 72 33 39 1018.4 - 0.8
02/01:00pm 9.8 -2.7 4.2 68 2.5 SW 59 72 32 39 1017.8 - 0.8
02/12:30pm 9.8 -3.6 5.2 73 2.1 WSW 65 74 35 40 1017.4 - 0.8
02/12:00pm 8.2 -4.3 3.9 74 1.9 SW 59 78 32 42 1017.3 1017.4 0.8
02/11:36am 9.1 -3.7 4.5 73 2.0 SW 61 82 33 44 1016.8 - 0.8
02/11:30am 9.2 -3.1 5.0 75 1.9 SW 59 74 32 40 1016.8 - 0.8
02/11:00am 8.3 -4.1 4.7 78 1.6 WSW 59 69 32 37 1016.2 - 0.8
02/10:30am 8.1 -2.3 5.9 86 1.0 WSW 50 61 27 33 1016.3 - 0.8
02/10:00am 7.4 -2.8 5.2 86 1.0 WSW 48 56 26 30 1016.3 - 0.8
02/09:30am 6.9 -4.5 5.1 88 0.8 WSW 54 63 29 34 1015.9 - 0.6
02/09:10am 7.1 -7.2 4.9 86 1.0 SW 69 87 37 47 1015.6 - 0.0
02/09:00am 7.0 -9.6 3.8 80 1.4 SW 80 95 43 51 1015.4 1015.5 5.4
02/08:48am 8.8 -6.2 3.8 71 2.2 WSW 72 95 39 51 1014.3 - 5.2
02/08:30am 9.4 -4.8 5.2 75 1.9 WSW 69 78 37 42 1014.0 - 5.2
02/07:56am 7.7 -3.6 5.2 84 1.1 WSW 54 65 29 35 1014.5 - 5.2
02/07:30am 8.6 -6.1 5.4 80 1.4 WSW 72 89 39 48 1013.8 - 5.0
02/07:02am 8.3 -4.4 4.9 79 1.5 W 61 80 33 43 1013.8 - 4.8
02/07:00am 8.3 -5.2 4.9 79 1.5 WSW 65 80 35 43 1013.8 - 4.8
02/06:34am 9.2 -4.4 4.6 73 2.1 WSW 65 83 35 45 1013.3 - 4.8
02/06:30am 9.9 -3.6 4.9 71 2.3 WSW 65 80 35 43 1013.4 - 4.8
02/06:00am 10.3 -3.5 5.1 70 2.4 W 67 74 36 40 1013.1 1013.2 4.8
02/05:30am 10.2 -3.4 6.0 75 2.0 W 67 80 36 43 1013.0 - 4.8
02/05:00am 9.8 -3.3 6.7 81 1.5 WSW 65 76 35 41 1013.1 - 4.8
02/04:30am 9.7 -5.9 6.4 80 1.5 WSW 78 89 42 48 1013.0 - 4.8
02/04:14am 10.3 -2.5 8.2 87 1.0 W 65 89 35 48 1012.7 - 4.8
02/04:00am 10.0 -4.1 8.3 89 0.8 W 72 85 39 46 1012.6 - 4.8
02/03:30am 10.1 -3.2 8.9 92 0.6 W 69 80 37 43 1012.8 - 4.6
02/03:17am 10.1 -5.0 8.9 92 0.6 W 78 96 42 52 1012.7 - 4.6
02/03:00am 10.4 -3.8 9.3 93 0.6 W 74 89 40 48 1012.6 1012.7 4.4
02/02:54am 10.5 -2.3 9.4 93 0.6 W 67 87 36 47 1012.8 - 4.4
02/02:30am 10.6 -2.8 9.5 93 0.6 W 70 85 38 46 1012.5 - 3.6
02/02:00am 9.8 -4.5 8.7 93 0.5 W 74 87 40 47 1012.5 - 3.4
02/01:30am 10.2 -5.8 9.0 92 0.6 W 83 96 45 52 1012.0 - 3.0
02/01:14am 10.0 -7.7 8.3 89 0.8 W 91 109 49 59 1012.4 - 2.4
02/01:10am 9.6 -9.1 7.2 85 1.1 W 95 109 51 59 1012.3 - 2.2
02/01:06am 10.6 -3.7 7.3 80 1.6 WNW 72 91 39 49 1012.6 - 1.4
02/01:00am 11.4 -2.2 7.7 78 1.8 WNW 69 82 37 44 1012.8 - 1.2
02/12:30am 11.2 -2.2 6.9 75 2.1 NW 67 87 36 47 1013.1 - 1.2
02/12:27am 11.2 -2.6 6.9 75 2.1 NW 69 89 37 48 1013.1 - 1.2
02/12:23am 11.3 -3.1 7.0 75 2.1 WNW 72 95 39 51 1012.9 - 1.2
02/12:00am 11.3 -7.1 7.0 75 2.1 WNW 93 106 50 57 1012.2 1012.3 1.2
 
Date/Time
EST
Temp
°C
App
Temp
°C
Dew
Point
Rel
Hum
%
Delta-T
°C
Wind Press
QNH
hPa
Press
MSL
hPa
Rain
since 9 am
mm
Dir
 
Spd
km/h
Gust
km/h
Spd
kts
Gust
kts
01/11:30pm 11.3 -5.2 6.8 74 2.1 WNW 83 95 45 51 1013.0 - 1.2
01/11:00pm 11.4 -3.1 6.5 72 2.3 WNW 72 89 39 48 1014.3 - 1.2
01/10:54pm 11.2 -2.9 6.3 72 2.3 WNW 70 89 38 48 1014.2 - 1.2
01/10:30pm 11.2 -2.4 6.1 71 2.4 WNW 67 80 36 43 1014.7 - 1.2
01/10:23pm 11.2 -2.4 6.1 71 2.4 NW 67 85 36 46 1014.7 - 1.2
01/10:00pm 11.1 -3.4 6.3 72 2.3 WNW 72 87 39 47 1014.8 - 1.2
01/09:30pm 11.2 -3.8 5.9 70 2.5 WNW 74 87 40 47 1015.2 - 1.2
01/09:00pm 11.2 -3.5 5.5 68 2.6 WNW 72 85 39 46 1015.9 1016.0 1.2
01/08:30pm 11.2 -1.4 5.5 68 2.6 NW 61 78 33 42 1016.4 - 1.2
01/08:00pm 11.0 -2.3 5.7 70 2.5 WNW 65 76 35 41 1016.8 - 1.2
01/07:30pm 11.1 -1.9 5.6 69 2.6 WNW 63 78 34 42 1017.2 - 1.2
01/07:00pm 11.4 -2.3 5.7 68 2.7 WNW 67 76 36 41 1017.5 - 1.2
01/06:30pm 11.4 -2.7 5.5 67 2.7 WNW 69 80 37 43 1017.6 - 1.2
01/06:00pm 11.3 -1.8 5.0 65 2.9 WNW 63 72 34 39 1017.9 1018.1 1.2
01/05:30pm 11.5 -1.2 5.2 65 2.9 WNW 61 69 33 37 1018.2 - 1.2
01/05:00pm 11.5 -0.5 4.9 64 3.0 WNW 57 67 31 36 1018.6 - 1.2
01/04:30pm 11.5 -1.3 4.7 63 3.1 WNW 61 69 33 37 1018.7 - 1.2
01/04:00pm 11.8 0.1 5.2 64 3.1 WNW 56 65 30 35 1019.3 - 1.2
01/03:30pm 11.9 -0.8 5.1 63 3.1 WNW 61 69 33 37 1019.5 - 1.2
01/03:00pm 11.4 -0.5 5.3 66 2.8 WNW 57 69 31 37 1019.6 1019.8 1.2
01/02:30pm 11.6 -0.2 5.7 67 2.8 WNW 57 63 31 34 1020.0 - 1.2
01/02:00pm 11.5 0.2 5.6 67 2.7 WNW 54 63 29 34 1020.4 - 1.2
01/01:30pm 11.9 1.1 6.0 67 2.8 WNW 52 61 28 33 1020.9 - 1.2
01/01:00pm 11.2 -0.1 5.5 68 2.6 WNW 54 61 29 33 1021.5 - 1.2
01/12:30pm 11.1 -0.5 5.6 69 2.6 WNW 56 63 30 34 1021.8 - 1.2
01/12:00pm 10.6 -1.5 6.2 74 2.1 WNW 59 69 32 37 1022.1 1022.2 1.2
01/11:30am 11.1 -0.1 8.3 83 1.4 WNW 57 65 31 35 1022.8 - 1.2
01/11:00am 10.5 1.5 8.8 89 0.8 WNW 46 54 25 29 1023.7 - 1.2
01/10:30am 10.2 3.2 8.5 89 0.8 WNW 35 43 19 23 1024.3 - 1.2
01/10:00am 10.0 2.9 8.1 88 0.9 WNW 35 41 19 22 1024.7 - 1.0
01/09:37am 10.0 1.9 7.1 82 1.4 WNW 39 44 21 24 1024.7 - 0.0
01/09:30am 11.2 4.5 8.1 81 1.5 W 33 37 18 20 1024.8 - 0.0
01/09:00am 10.8 5.0 7.9 82 1.4 W 28 32 15 17 1024.9 1025.1 0.0
01/08:30am 9.8 1.2 6.7 81 1.5 W 41 52 22 28 1024.9 - 0.0
01/08:00am 11.3 2.0 5.8 69 2.6 W 44 54 24 29 1024.6 - 0.0
01/07:30am 11.2 4.0 7.5 78 1.8 W 35 43 19 23 1024.8 - 0.0
01/07:00am 11.0 3.3 6.9 76 2.0 W 37 43 20 23 1024.6 - 0.0
01/06:30am 11.0 3.0 7.5 79 1.7 W 39 46 21 25 1024.7 - 0.0
01/06:00am 11.1 2.4 7.8 80 1.6 W 43 48 23 26 1024.6 1024.7 0.0
01/05:30am 10.9 3.4 8.0 82 1.4 WSW 37 43 20 23 1024.5 - 0.0
01/05:00am 10.5 3.8 8.1 85 1.2 W 33 39 18 21 1024.6 - 0.0
01/04:30am 10.9 4.2 8.1 83 1.4 W 33 39 18 21 1024.7 - 0.0
01/04:00am 10.8 4.2 8.4 85 1.2 W 33 39 18 21 1024.7 - 0.0
01/03:30am 10.7 4.0 8.3 85 1.2 W 33 37 18 20 1024.8 - 0.0
01/03:00am 10.7 3.6 8.1 84 1.3 W 35 41 19 22 1025.1 1025.3 0.0
01/02:30am 10.5 3.7 7.9 84 1.3 W 33 39 18 21 1025.2 - 0.0
01/02:00am 10.6 3.8 7.8 83 1.4 W 33 39 18 21 1025.3 - 0.0
01/01:30am 10.5 3.7 7.7 83 1.4 W 33 41 18 22 1025.4 - 0.0
01/01:00am 10.7 3.5 7.6 81 1.5 W 35 43 19 23 1025.6 - 0.0
01/12:30am 10.8 3.6 7.7 81 1.5 W 35 41 19 22 1025.7 - 0.0
01/12:00am 10.8 3.7 7.9 82 1.4 W 35 43 19 23 1025.9 1026.1 0.0
 
Date/Time
EST
Temp
°C
App
Temp
°C
Dew
Point
Rel
Hum
%
Delta-T
°C
Wind Press
QNH
hPa
Press
MSL
hPa
Rain
since 9 am
mm
Dir
 
Spd
km/h
Gust
km/h
Spd
kts
Gust
kts
30/11:30pm 10.6 3.5 8.0 84 1.3 WSW 35 39 19 21 1026.0 - 0.0
30/11:00pm 10.6 3.9 8.2 85 1.2 W 33 39 18 21 1026.0 - 0.0
30/10:30pm 10.9 4.3 8.5 85 1.2 W 33 41 18 22 1026.1 - 0.0
30/10:00pm 10.8 3.4 8.4 85 1.2 W 37 43 20 23 1026.1 - 0.0
30/09:30pm 10.5 3.2 8.6 88 0.9 W 37 41 20 22 1026.0 - 0.0
30/09:00pm 10.1 4.8 8.4 89 0.8 WSW 26 30 14 16 1026.0 1026.2 0.0
30/08:30pm 10.3 4.2 8.4 88 0.9 WSW 30 35 16 19 1026.1 - 0.0
30/08:00pm 10.4 3.5 8.7 89 0.8 WSW 35 41 19 22 1026.2 - 0.0
30/07:30pm 10.7 5.2 9.0 89 0.8 W 28 35 15 19 1026.1 - 0.0
30/07:00pm 10.7 4.2 9.0 89 0.8 W 33 41 18 22 1026.0 - 0.0
30/06:30pm 10.8 3.5 8.7 87 1.0 W 37 44 20 24 1025.8 - 0.0
30/06:00pm 11.0 4.4 8.6 85 1.2 W 33 39 18 21 1025.8 1026.0 0.0
30/05:30pm 11.0 3.2 8.2 83 1.4 W 39 44 21 24 1025.5 - 0.0
30/05:00pm 11.0 3.1 7.9 81 1.5 W 39 44 21 24 1025.4 - 0.0
30/04:30pm 11.2 3.8 8.2 82 1.5 W 37 43 20 23 1025.2 - 0.0
30/04:00pm 11.4 4.1 8.6 83 1.4 W 37 43 20 23 1025.2 - 0.0
30/03:30pm 11.7 5.3 8.7 82 1.5 W 32 37 17 20 1025.2 - 0.0
30/03:00pm 11.5 4.6 8.7 83 1.4 W 35 39 19 21 1025.1 1025.3 0.0
30/02:30pm 11.8 3.2 8.8 82 1.5 W 44 50 24 27 1025.0 - 0.0
30/02:00pm 12.2 4.2 8.9 80 1.7 W 41 50 22 27 1025.1 - 0.0
30/01:30pm 11.7 4.3 8.4 80 1.6 W 37 43 20 23 1025.3 - 0.0
30/01:00pm 11.6 3.8 8.1 79 1.7 W 39 44 21 24 1025.8 - 0.0
30/12:30pm 11.9 4.8 8.2 78 1.8 W 35 41 19 22 1026.2 - 0.0
30/12:00pm 11.8 5.8 8.6 81 1.6 W 30 35 16 19 1026.6 1026.8 0.0
30/11:30am 11.9 6.1 9.3 84 1.3 W 30 35 16 19 1027.0 - 0.0
30/11:00am 10.8 4.2 8.4 85 1.2 W 33 41 18 22 1027.5 - 0.0
30/10:30am 11.3 3.4 7.8 79 1.7 W 39 44 21 24 1027.5 - 0.0
30/10:00am 12.1 6.8 6.8 70 2.5 WSW 24 28 13 15 1027.7 - 0.0
30/09:30am 11.8 6.5 6.7 71 2.4 W 24 28 13 15 1027.6 - 0.0
30/09:00am 11.5 6.2 6.6 72 2.3 WSW 24 30 13 16 1027.6 1027.8 0.0
30/08:30am 11.3 8.0 6.2 71 2.4 W 13 19 7 10 1027.5 - 0.0
30/08:00am 11.1 6.5 5.8 70 2.5 W 19 26 10 14 1027.4 - 0.0
30/07:30am 11.3 5.6 6.8 74 2.1 W 26 35 14 19 1027.3 - 0.0
30/07:00am 11.1 7.1 6.5 73 2.2 W 17 20 9 11 1027.3 - 0.0
30/06:30am 11.0 6.0 6.6 74 2.1 W 22 28 12 15 1027.3 - 0.0
30/06:00am 11.2 6.8 6.5 73 2.2 W 19 22 10 12 1027.1 1027.3 0.0
30/05:30am 11.0 5.7 6.6 74 2.1 WSW 24 32 13 17 1027.0 - 0.0
30/05:00am 11.1 6.2 7.0 76 2.0 WSW 22 28 12 15 1026.9 - 0.0
30/04:30am 11.1 6.8 6.8 75 2.1 WSW 19 24 10 13 1027.1 - 0.0
30/04:00am 11.0 6.1 6.7 75 2.0 W 22 24 12 13 1027.2 - 0.0
30/03:30am 10.9 5.2 6.6 75 2.0 W 26 35 14 19 1027.4 - 0.0
30/03:00am 11.0 5.4 7.1 77 1.9 WSW 26 32 14 17 1027.4 1027.6 0.0
30/02:30am 11.0 5.4 7.1 77 1.9 W 26 32 14 17 1027.5 - 0.0
30/02:00am 11.1 5.1 7.2 77 1.9 W 28 33 15 18 1027.6 - 0.0
30/01:30am 10.8 4.8 7.1 78 1.8 W 28 33 15 18 1027.7 - 0.0
30/01:00am 10.9 4.6 7.2 78 1.8 W 30 35 16 19 1028.1 - 0.0
30/12:30am 11.0 4.7 7.3 78 1.8 W 30 35 16 19 1028.3 - 0.0
30/12:00am 11.2 4.6 7.9 80 1.6 W 32 39 17 21 1028.4 1028.6 0.0
 
Date/Time
EST
Temp
°C
App
Temp
°C
Dew
Point
Rel
Hum
%
Delta-T
°C
Wind Press
QNH
hPa
Press
MSL
hPa
Rain
since 9 am
mm
Dir
 
Spd
km/h
Gust
km/h
Spd
kts
Gust
kts
29/11:30pm 10.7 4.4 7.6 81 1.5 W 30 35 16 19 1028.4 - 0.0
29/11:00pm 10.5 4.5 7.2 80 1.6 W 28 35 15 19 1028.3 - 0.0
29/10:30pm 10.8 4.1 7.3 79 1.7 W 32 37 17 20 1028.5 - 0.0
29/10:00pm 11.3 5.1 7.8 79 1.7 W 30 35 16 19 1028.9 - 0.0
29/09:30pm 11.1 4.9 7.8 80 1.6 W 30 37 16 20 1029.1 - 0.0
29/09:00pm 10.8 4.0 7.7 81 1.5 W 33 39 18 21 1029.3 1029.4 0.0
29/08:30pm 10.8 4.0 7.5 80 1.6 W 33 39 18 21 1029.6 - 0.0
29/08:00pm 10.9 3.7 7.6 80 1.6 W 35 43 19 23 1029.6 - 0.0
29/07:30pm 10.8 3.5 7.1 78 1.8 W 35 44 19 24 1029.6 - 0.0
29/07:00pm 10.8 3.1 7.3 79 1.7 W 37 43 20 23 1029.5 - 0.0
29/06:30pm 11.3 3.8 8.0 80 1.6 W 37 43 20 23 1029.5 - 0.0
29/06:00pm 11.5 4.5 8.4 81 1.5 W 35 43 19 23 1029.3 1029.4 0.0
29/05:30pm 11.5 3.8 8.7 83 1.4 W 39 44 21 24 1029.3 - 0.0
29/05:00pm 11.8 5.1 9.5 86 1.2 W 35 41 19 22 1029.4 - 0.0
29/04:30pm 12.0 4.9 9.6 85 1.2 W 37 44 20 24 1029.4 - 0.0
29/04:00pm 11.8 4.2 9.2 84 1.3 W 39 44 21 24 1029.5 - 0.0
29/03:30pm 13.3 6.0 10.1 81 1.7 W 39 44 21 24 1029.6 - 0.0

Other Formats:

Comma delimited format used in spreadsheet applications
http://www.bom.gov.au/fwo/IDT60801/IDT60801.94949.axf

JavaScript Object Notation format (JSON) in row-major order
http://www.bom.gov.au/fwo/IDT60801/IDT60801.94949.json